Time,TemperatureF,DewpointF,PressureIn,WindDirection,WindDirectionDegrees,WindSpeedMPH,WindSpeedGustMPH,Humidity,HourlyPrecipIn,Conditions,Clouds,dailyrainin,SolarRadiationWatts/m^2,SoftwareType,DateUTC
2013-05-22 00:04:00,70.0,66.0,-100.00,SW,225,6.0,11.0,87,0.00,,,0.00,0.000000,,2013-05-22 04:04:00,
2013-05-22 00:10:00,70.0,66.0,-100.00,SW,229,7.0,15.0,88,0.00,,,0.00,0.000000,,2013-05-22 04:10:00,
2013-05-22 00:33:00,70.0,66.0,-100.00,SW,229,7.0,15.0,88,0.00,,,0.00,0.000000,,2013-05-22 04:33:00,
2013-05-22 00:43:00,70.0,66.0,-100.00,SW,229,7.0,15.0,88,0.00,,,0.00,0.000000,,2013-05-22 04:43:00,
2013-05-22 00:53:00,70.0,66.0,-100.00,SW,229,7.0,15.0,88,0.00,,,0.00,0.000000,,2013-05-22 04:53:00,
2013-05-22 01:02:00,70.0,66.0,-100.00,SW,229,7.0,15.0,88,0.00,,,0.00,0.000000,,2013-05-22 05:02:00,
2013-05-22 01:10:00,69.0,66.0,-100.00,SW,225,6.0,12.0,90,0.00,,,0.00,0.000000,,2013-05-22 05:10:00,
2013-05-22 01:32:00,69.0,66.0,-100.00,SW,225,6.0,12.0,90,0.00,,,0.00,0.000000,,2013-05-22 05:32:00,
2013-05-22 01:42:00,69.0,66.0,-100.00,SW,225,6.0,12.0,90,0.00,,,0.00,0.000000,,2013-05-22 05:42:00,
2013-05-22 01:52:00,69.0,66.0,-100.00,SW,225,6.0,12.0,90,0.00,,,0.00,0.000000,,2013-05-22 05:52:00,
2013-05-22 02:01:00,69.0,66.0,-100.00,SW,225,6.0,12.0,90,0.00,,,0.00,0.000000,,2013-05-22 06:01:00,
2013-05-22 02:10:00,68.0,66.0,-100.00,SW,235,5.0,11.0,93,0.00,,,0.00,0.000000,,2013-05-22 06:10:00,
2013-05-22 02:32:00,68.0,66.0,-100.00,SW,235,5.0,11.0,93,0.00,,,0.00,0.000000,,2013-05-22 06:32:00,
2013-05-22 02:42:00,68.0,66.0,-100.00,SW,235,5.0,11.0,93,0.00,,,0.00,0.000000,,2013-05-22 06:42:00,
2013-05-22 02:52:00,68.0,66.0,-100.00,SW,235,5.0,11.0,93,0.00,,,0.00,0.000000,,2013-05-22 06:52:00,
2013-05-22 03:01:00,68.0,66.0,-100.00,SW,235,5.0,11.0,93,0.00,,,0.00,0.000000,,2013-05-22 07:01:00,
2013-05-22 03:10:00,67.0,66.0,-100.00,SSW,207,4.0,9.0,95,0.00,,,0.00,0.000000,,2013-05-22 07:10:00,
2013-05-22 03:32:00,67.0,66.0,-100.00,SSW,207,4.0,9.0,95,0.00,,,0.00,0.000000,,2013-05-22 07:32:00,
2013-05-22 03:42:00,67.0,66.0,-100.00,SSW,207,4.0,9.0,95,0.00,,,0.00,0.000000,,2013-05-22 07:42:00,
2013-05-22 03:53:00,67.0,66.0,-100.00,SSW,207,4.0,9.0,95,0.00,,,0.00,0.000000,,2013-05-22 07:53:00,
2013-05-22 04:02:00,67.0,66.0,-100.00,SSW,207,4.0,9.0,95,0.00,,,0.00,0.000000,,2013-05-22 08:02:00,
2013-05-22 04:10:00,67.0,66.0,-100.00,SW,217,4.0,8.0,96,0.00,,,-99.99,0.000000,,2013-05-22 08:10:00,
2013-05-22 04:32:00,67.0,66.0,-100.00,SW,217,4.0,8.0,96,0.00,,,-99.99,0.000000,,2013-05-22 08:32:00,
2013-05-22 04:42:00,67.0,66.0,-100.00,SW,217,4.0,8.0,96,0.00,,,-99.99,0.000000,,2013-05-22 08:42:00,
2013-05-22 04:52:00,67.0,66.0,-100.00,SW,217,4.0,8.0,96,0.00,,,-99.99,0.000000,,2013-05-22 08:52:00,
2013-05-22 05:01:00,67.0,66.0,-100.00,SW,217,4.0,8.0,96,0.00,,,-99.99,0.000000,,2013-05-22 09:01:00,
2013-05-22 05:10:00,66.0,65.0,-100.00,SW,215,3.0,6.0,98,0.00,,,0.00,0.000000,,2013-05-22 09:10:00,
2013-05-22 05:33:00,66.0,65.0,-100.00,SW,215,3.0,6.0,98,0.00,,,0.00,0.000000,,2013-05-22 09:33:00,
2013-05-22 05:43:00,66.0,65.0,-100.00,SW,215,3.0,6.0,98,0.00,,,0.00,0.000000,,2013-05-22 09:43:00,
2013-05-22 05:53:00,66.0,65.0,-100.00,SW,215,3.0,6.0,98,0.00,,,0.00,0.000000,,2013-05-22 09:53:00,
2013-05-22 06:03:00,66.0,65.0,-100.00,SW,215,3.0,6.0,98,0.00,,,0.00,0.000000,,2013-05-22 10:03:00,
2013-05-22 06:10:00,65.0,65.0,-100.00,SSE,156,2.0,5.0,99,0.00,,,0.00,5.000000,,2013-05-22 10:10:00,
2013-05-22 06:33:00,65.0,65.0,-100.00,SSE,156,2.0,5.0,99,0.00,,,0.00,5.000000,,2013-05-22 10:33:00,
2013-05-22 06:42:00,65.0,65.0,-100.00,SSE,156,2.0,5.0,99,0.00,,,0.00,5.000000,,2013-05-22 10:42:00,
2013-05-22 06:53:00,65.0,65.0,-100.00,SSE,156,2.0,5.0,99,0.00,,,0.00,5.000000,,2013-05-22 10:53:00,
2013-05-22 07:02:00,65.0,65.0,-100.00,SSE,156,2.0,5.0,99,0.00,,,0.00,5.000000,,2013-05-22 11:02:00,
2013-05-22 07:10:00,67.0,67.0,-100.00,SE,141,3.0,5.0,100,0.00,,,0.00,52.000000,,2013-05-22 11:10:00,
2013-05-22 07:32:00,67.0,67.0,-100.00,SE,141,3.0,5.0,100,0.00,,,0.00,52.000000,,2013-05-22 11:32:00,
2013-05-22 07:42:00,67.0,67.0,-100.00,SE,141,3.0,5.0,100,0.00,,,0.00,52.000000,,2013-05-22 11:42:00,
2013-05-22 07:53:00,67.0,67.0,-100.00,SE,141,3.0,5.0,100,0.00,,,0.00,52.000000,,2013-05-22 11:53:00,
2013-05-22 08:02:00,67.0,67.0,-100.00,SE,141,3.0,5.0,100,0.00,,,0.00,52.000000,,2013-05-22 12:02:00,
2013-05-22 08:10:00,67.0,67.0,-100.00,ESE,111,5.0,9.0,100,0.00,,,0.00,74.000000,,2013-05-22 12:10:00,
2013-05-22 08:32:00,67.0,67.0,-100.00,ESE,111,5.0,9.0,100,0.00,,,0.00,74.000000,,2013-05-22 12:32:00,
2013-05-22 08:42:00,67.0,67.0,-100.00,ESE,111,5.0,9.0,100,0.00,,,0.00,74.000000,,2013-05-22 12:42:00,
2013-05-22 08:52:00,67.0,67.0,-100.00,ESE,111,5.0,9.0,100,0.00,,,0.00,74.000000,,2013-05-22 12:52:00,
2013-05-22 09:02:00,67.0,67.0,-100.00,ESE,111,5.0,9.0,100,0.00,,,0.00,74.000000,,2013-05-22 13:02:00,
2013-05-22 10:10:00,68.0,68.0,-100.00,SSE,160,5.0,12.0,100,-99.99,,,0.00,145.000000,,2013-05-22 14:10:00,
2013-05-22 10:32:00,68.0,68.0,-100.00,SSE,160,5.0,12.0,100,-99.99,,,0.00,145.000000,,2013-05-22 14:32:00,
2013-05-22 10:42:00,68.0,68.0,-100.00,SSE,160,5.0,12.0,100,-99.99,,,0.00,145.000000,,2013-05-22 14:42:00,
2013-05-22 10:53:00,68.0,68.0,-100.00,SSE,160,5.0,12.0,100,-99.99,,,0.00,145.000000,,2013-05-22 14:53:00,
2013-05-22 11:01:00,68.0,68.0,-100.00,SSE,160,5.0,12.0,100,-99.99,,,0.00,145.000000,,2013-05-22 15:01:00,
2013-05-22 11:10:00,67.0,67.0,-100.00,SE,130,5.0,8.0,100,0.00,,,-99.99,206.000000,,2013-05-22 15:10:00,
2013-05-22 11:33:00,67.0,67.0,-100.00,SE,130,5.0,8.0,100,0.00,,,-99.99,206.000000,,2013-05-22 15:33:00,
2013-05-22 11:43:00,67.0,67.0,-100.00,SE,130,5.0,8.0,100,0.00,,,-99.99,206.000000,,2013-05-22 15:43:00,
2013-05-22 11:53:00,67.0,67.0,-100.00,SE,130,5.0,8.0,100,0.00,,,-99.99,206.000000,,2013-05-22 15:53:00,
2013-05-22 12:03:00,67.0,67.0,-100.00,SE,130,5.0,8.0,100,0.00,,,-99.99,206.000000,,2013-05-22 16:03:00,
2013-05-22 12:10:00,70.0,70.0,-100.00,SE,136,5.0,8.0,100,0.00,,,0.00,351.000000,,2013-05-22 16:10:00,
2013-05-22 12:33:00,70.0,70.0,-100.00,SE,136,5.0,8.0,100,0.00,,,0.00,351.000000,,2013-05-22 16:33:00,
2013-05-22 12:42:00,70.0,70.0,-100.00,SE,136,5.0,8.0,100,0.00,,,0.00,351.000000,,2013-05-22 16:42:00,
2013-05-22 12:52:00,70.0,70.0,-100.00,SE,136,5.0,8.0,100,0.00,,,0.00,351.000000,,2013-05-22 16:52:00,
2013-05-22 13:02:00,70.0,70.0,-100.00,SE,136,5.0,8.0,100,0.00,,,0.00,351.000000,,2013-05-22 17:02:00,
2013-05-22 13:10:00,74.0,73.0,-100.00,SSW,203,5.0,8.0,96,0.00,,,0.00,485.000000,,2013-05-22 17:10:00,
2013-05-22 13:33:00,74.0,73.0,-100.00,SSW,203,5.0,8.0,96,0.00,,,0.00,485.000000,,2013-05-22 17:33:00,
2013-05-22 13:42:00,74.0,73.0,-100.00,SSW,203,5.0,8.0,96,0.00,,,0.00,485.000000,,2013-05-22 17:42:00,
2013-05-22 13:54:00,74.0,73.0,-100.00,SSW,203,5.0,8.0,96,0.00,,,0.00,485.000000,,2013-05-22 17:54:00,
2013-05-22 14:02:00,74.0,73.0,-100.00,SSW,203,5.0,8.0,96,0.00,,,0.00,485.000000,,2013-05-22 18:02:00,
2013-05-22 14:10:00,79.0,72.0,-100.00,South,189,7.0,12.0,79,0.00,,,0.00,974.000000,,2013-05-22 18:10:00,
2013-05-22 14:34:00,79.0,72.0,-100.00,South,189,7.0,12.0,79,0.00,,,0.00,974.000000,,2013-05-22 18:34:00,
2013-05-22 14:42:00,79.0,72.0,-100.00,South,189,7.0,12.0,79,0.00,,,0.00,974.000000,,2013-05-22 18:42:00,
2013-05-22 14:52:00,79.0,72.0,-100.00,South,189,7.0,12.0,79,0.00,,,0.00,974.000000,,2013-05-22 18:52:00,
2013-05-22 15:02:00,79.0,72.0,-100.00,South,189,7.0,12.0,79,0.00,,,0.00,974.000000,,2013-05-22 19:02:00,
2013-05-22 15:10:00,81.0,72.0,-100.00,South,186,8.0,15.0,74,0.00,,,0.00,924.000000,,2013-05-22 19:10:00,
2013-05-22 15:32:00,81.0,72.0,-100.00,South,186,8.0,15.0,74,0.00,,,0.00,924.000000,,2013-05-22 19:32:00,
2013-05-22 15:42:00,81.0,72.0,-100.00,South,186,8.0,15.0,74,0.00,,,0.00,924.000000,,2013-05-22 19:42:00,
2013-05-22 15:52:00,81.0,72.0,-100.00,South,186,8.0,15.0,74,0.00,,,0.00,924.000000,,2013-05-22 19:52:00,
2013-05-22 16:02:00,81.0,72.0,-100.00,South,186,8.0,15.0,74,0.00,,,0.00,924.000000,,2013-05-22 20:02:00,
2013-05-22 16:10:00,82.0,72.0,-100.00,South,181,8.0,14.0,73,0.00,,,0.00,795.000000,,2013-05-22 20:10:00,
2013-05-22 16:32:00,82.0,72.0,-100.00,South,181,8.0,14.0,73,0.00,,,0.00,795.000000,,2013-05-22 20:32:00,
2013-05-22 16:42:00,82.0,72.0,-100.00,South,181,8.0,14.0,73,0.00,,,0.00,795.000000,,2013-05-22 20:42:00,
2013-05-22 16:52:00,82.0,72.0,-100.00,South,181,8.0,14.0,73,0.00,,,0.00,795.000000,,2013-05-22 20:52:00,
2013-05-22 17:01:00,82.0,72.0,-100.00,South,181,8.0,14.0,73,0.00,,,0.00,795.000000,,2013-05-22 21:01:00,
2013-05-22 17:10:00,82.0,71.0,-100.00,SSE,161,8.0,16.0,70,0.00,,,0.00,588.000000,,2013-05-22 21:10:00,
2013-05-22 17:33:00,82.0,71.0,-100.00,SSE,161,8.0,16.0,70,0.00,,,0.00,588.000000,,2013-05-22 21:33:00,
2013-05-22 17:42:00,82.0,71.0,-100.00,SSE,161,8.0,16.0,70,0.00,,,0.00,588.000000,,2013-05-22 21:42:00,
2013-05-22 17:53:00,82.0,71.0,-100.00,SSE,161,8.0,16.0,70,0.00,,,0.00,588.000000,,2013-05-22 21:53:00,
2013-05-22 18:03:00,82.0,71.0,-100.00,SSE,161,8.0,16.0,70,0.00,,,0.00,588.000000,,2013-05-22 22:03:00,
2013-05-22 19:10:00,80.0,66.0,-100.00,South,186,7.0,13.0,62,-99.99,,,0.00,227.000000,,2013-05-22 23:10:00,
2013-05-22 19:32:00,80.0,66.0,-100.00,South,186,7.0,13.0,62,-99.99,,,0.00,227.000000,,2013-05-22 23:32:00,
2013-05-22 19:42:00,80.0,66.0,-100.00,South,186,7.0,13.0,62,-99.99,,,0.00,227.000000,,2013-05-22 23:42:00,
2013-05-22 19:53:00,80.0,66.0,-100.00,South,186,7.0,13.0,62,-99.99,,,0.00,227.000000,,2013-05-22 23:53:00,
2013-05-22 20:01:00,80.0,66.0,-100.00,South,186,7.0,13.0,62,-99.99,,,0.00,227.000000,,2013-05-23 00:01:00,
2013-05-22 21:10:00,75.0,67.0,-100.00,SSW,192,7.0,11.0,76,-99.99,,,0.00,1.000000,,2013-05-23 01:10:00,
2013-05-22 21:32:00,75.0,67.0,-100.00,SSW,192,7.0,11.0,76,-99.99,,,0.00,1.000000,,2013-05-23 01:32:00,
2013-05-22 21:42:00,75.0,67.0,-100.00,SSW,192,7.0,11.0,76,-99.99,,,0.00,1.000000,,2013-05-23 01:42:00,
2013-05-22 21:52:00,75.0,67.0,-100.00,SSW,192,7.0,11.0,76,-99.99,,,0.00,1.000000,,2013-05-23 01:52:00,
2013-05-22 22:02:00,75.0,67.0,-100.00,SSW,192,7.0,11.0,76,-99.99,,,0.00,1.000000,,2013-05-23 02:02:00,
2013-05-22 22:10:00,74.0,67.0,-100.00,SSW,204,7.0,14.0,80,0.00,,,0.00,0.000000,,2013-05-23 02:10:00,
2013-05-22 22:32:00,74.0,67.0,-100.00,SSW,204,7.0,14.0,80,0.00,,,0.00,0.000000,,2013-05-23 02:32:00,
2013-05-22 22:42:00,74.0,67.0,-100.00,SSW,204,7.0,14.0,80,0.00,,,0.00,0.000000,,2013-05-23 02:42:00,
2013-05-22 22:52:00,74.0,67.0,-100.00,SSW,204,7.0,14.0,80,0.00,,,0.00,0.000000,,2013-05-23 02:52:00,
2013-05-22 23:02:00,74.0,67.0,-100.00,SSW,204,7.0,14.0,80,0.00,,,0.00,0.000000,,2013-05-23 03:02:00,
2013-05-22 23:10:00,72.0,68.0,-100.00,SSW,200,5.0,12.0,86,0.00,,,0.00,0.000000,,2013-05-23 03:10:00,
2013-05-22 23:33:00,72.0,68.0,-100.00,SSW,200,5.0,12.0,86,0.00,,,0.00,0.000000,,2013-05-23 03:33:00,
2013-05-22 23:43:00,72.0,68.0,-100.00,SSW,200,5.0,12.0,86,0.00,,,0.00,0.000000,,2013-05-23 03:43:00,
2013-05-22 23:53:00,72.0,68.0,-100.00,SSW,200,5.0,12.0,86,0.00,,,0.00,0.000000,,2013-05-23 03:53:00,